Time;durP1;ratioP1;P1;durP2;ratioP2;P2;SDS_P1;SDS_P2;PMS_P1;PMS_P2;Temp;Humidity;BMP_temperature;BMP_pressure;BME280_temperature;BME280_humidity;BME280_pressure;Samples;Min_cycle;Max_cycle;Signal;HPM_P1;HPM_P2
2023/10/18 00:00:31;;;;;;;0.60;0.60;;;;;;;4.73;100.00;96513.62;29395;254;63009;-90
2023/10/18 00:01:06;;;;;;;1.45;1.45;;;;;;;4.73;100.00;96524.38;29395;268;63004;-90
2023/10/18 00:01:39;;;;;;;0.60;0.60;;;;;;;4.74;100.00;96522.50;29395;267;63009;-90
2023/10/18 00:02:17;;;;;;;0.50;0.50;;;;;;;4.72;100.00;96528.94;29395;199;63004;-90
2023/10/18 00:02:52;;;;;;;0.60;0.60;;;;;;;4.70;100.00;96524.91;29395;212;63009;-89
2023/10/18 00:03:30;;;;;;;0.60;0.60;;;;;;;4.69;100.00;96524.09;29395;257;63004;-90
2023/10/18 00:04:01;;;;;;;0.60;0.60;;;;;;;4.70;100.00;96523.03;29395;245;63009;-89
2023/10/18 00:04:38;;;;;;;0.60;0.60;;;;;;;4.69;100.00;96523.28;29394;214;64009;-89
2023/10/18 00:05:10;;;;;;;0.50;0.50;;;;;;;4.66;100.00;96513.88;29395;229;63009;-90
2023/10/18 00:05:43;;;;;;;0.60;0.60;;;;;;;4.65;100.00;96522.19;29395;242;63005;-91
2023/10/18 00:06:17;;;;;;;0.60;0.60;;;;;;;4.64;100.00;96521.41;29395;203;63009;-89
2023/10/18 00:06:54;;;;;;;0.50;0.50;;;;;;;4.65;100.00;96522.19;29395;196;63005;-90
2023/10/18 00:07:28;;;;;;;0.60;0.60;;;;;;;4.63;100.00;96511.72;29395;196;63009;-90
2023/10/18 00:08:03;;;;;;;0.60;0.60;;;;;;;4.63;100.00;96519.78;29395;202;63004;-91
2023/10/18 00:08:36;;;;;;;0.60;0.60;;;;;;;4.61;100.00;96521.12;29395;234;63009;-90
2023/10/18 00:10:10;;;;;;;0.60;0.60;;;;;;;4.55;100.00;96522.97;29394;237;64009;-89
2023/10/18 00:10:42;;;;;;;0.60;0.60;;;;;;;4.54;100.00;96521.34;29395;208;63004;-89
2023/10/18 00:11:18;;;;;;;0.60;0.60;;;;;;;4.50;100.00;96519.47;29395;205;63008;-89
2023/10/18 00:11:49;;;;;;;0.50;0.50;;;;;;;4.49;100.00;96518.66;29395;232;63005;-89
2023/10/18 00:12:22;;;;;;;0.60;0.60;;;;;;;4.46;100.00;96521.06;29395;219;63009;-90
2023/10/18 00:12:56;;;;;;;0.60;0.60;;;;;;;4.44;100.00;96521.34;29395;219;63005;-90
2023/10/18 00:13:27;;;;;;;0.60;0.60;;;;;;;4.44;100.00;96515.97;29395;217;63009;-90
2023/10/18 00:13:58;;;;;;;1.00;1.00;;;;;;;4.42;100.00;96512.72;29395;217;63005;-90
2023/10/18 00:14:30;;;;;;;0.60;0.60;;;;;;;4.38;100.00;96517.00;29394;253;64013;-89
2023/10/18 00:15:05;;;;;;;0.60;0.60;;;;;;;4.36;100.00;96516.47;29395;207;63007;-91
2023/10/18 00:15:38;;;;;;;0.60;0.60;;;;;;;4.35;100.00;96517.53;29395;221;63009;-91
2023/10/18 00:16:09;;;;;;;0.50;0.50;;;;;;;4.34;100.00;96516.72;29395;224;63004;-89
2023/10/18 00:16:41;;;;;;;0.60;0.60;;;;;;;4.34;100.00;96521.28;29395;216;63009;-89
2023/10/18 00:17:14;;;;;;;0.60;0.60;;;;;;;4.34;100.00;96516.72;29395;225;63004;-90
2023/10/18 00:17:48;;;;;;;0.60;0.60;;;;;;;4.28;100.00;96511.59;29394;238;64013;-90
2023/10/18 00:18:23;;;;;;;0.60;0.60;;;;;;;4.33;100.00;96515.09;29395;280;63004;-89
2023/10/18 00:18:56;;;;;;;0.60;0.60;;;;;;;4.33;100.00;96519.66;29395;216;63009;-91
2023/10/18 00:19:27;;;;;;;0.60;0.60;;;;;;;4.30;100.00;96510.25;29394;200;64009;-90
2023/10/18 00:19:58;;;;;;;0.60;0.60;;;;;;;4.31;100.00;96513.75;29395;256;63009;-90
2023/10/18 00:20:35;;;;;;;0.60;0.60;;;;;;;4.32;100.00;96512.69;29395;202;63005;-90
2023/10/18 00:21:10;;;;;;;1.02;1.02;;;;;;;4.35;100.00;96517.53;29394;250;64013;-90
2023/10/18 00:21:44;;;;;;;0.55;0.55;;;;;;;4.38;100.00;96519.69;29395;208;63005;-91
2023/10/18 00:22:15;;;;;;;0.60;0.60;;;;;;;4.35;100.00;96512.97;29396;240;63009;-90
2023/10/18 00:22:48;;;;;;;0.60;0.60;;;;;;;4.38;100.00;96517.00;29396;202;63005;-90
2023/10/18 00:23:19;;;;;;;0.60;0.60;;;;;;;4.38;100.00;96511.63;29396;204;63009;-91
2023/10/18 00:23:51;;;;;;;0.60;0.60;;;;;;;4.38;100.00;96511.63;29396;214;63004;-91
2023/10/18 00:24:22;;;;;;;0.50;0.50;;;;;;;4.36;100.00;96514.59;29396;202;63009;-91
2023/10/18 00:24:53;;;;;;;0.55;0.55;;;;;;;4.38;100.00;96514.31;29396;257;63004;-92
2023/10/18 00:25:24;;;;;;;0.55;0.55;;;;;;;4.40;100.00;96514.88;29396;228;63009;-89
2023/10/18 00:25:55;;;;;;;0.60;0.60;;;;;;;4.44;100.00;96515.16;29396;196;63004;-89
2023/10/18 00:26:27;;;;;;;0.60;0.60;;;;;;;4.46;100.00;96513.00;29395;283;64014;-88
2023/10/18 00:26:58;;;;;;;0.50;0.50;;;;;;;4.49;100.00;96513.31;29396;198;63005;-88
2023/10/18 00:27:34;;;;;;;0.55;0.55;;;;;;;4.54;100.00;96509.78;29396;244;63009;-89
2023/10/18 00:28:10;;;;;;;0.50;0.50;;;;;;;4.57;100.00;96515.47;29396;204;63005;-89
2023/10/18 00:28:41;;;;;;;0.60;0.60;;;;;;;4.58;100.00;96514.38;29395;216;64013;-88
2023/10/18 00:29:14;;;;;;;0.60;0.60;;;;;;;4.59;100.00;96513.31;29396;240;63005;-88
2023/10/18 00:29:50;;;;;;;0.60;0.60;;;;;;;4.60;100.00;96517.63;29396;202;63009;-90
2023/10/18 00:30:27;;;;;;;0.52;0.52;;;;;;;4.61;100.00;96516.53;29396;206;63014;-88
2023/10/18 00:31:18;;;;;;;0.60;0.60;;;;;;;4.58;100.00;96506.31;29395;196;64013;-89
2023/10/18 00:31:51;;;;;;;0.60;0.60;;;;;;;4.58;100.00;96509.00;29396;244;63016;-89
2023/10/18 00:32:26;;;;;;;0.60;0.60;;;;;;;4.58;100.00;96510.87;29396;205;63008;-88
2023/10/18 00:32:57;;;;;;;0.50;0.50;;;;;;;4.58;100.00;96503.63;29396;222;63004;-88
2023/10/18 00:33:35;;;;;;;0.60;0.60;;;;;;;4.58;100.00;96497.44;29396;227;63008;-90
2023/10/18 00:34:08;;;;;;;0.60;0.60;;;;;;;4.59;100.00;96499.88;29396;214;63005;-90
2023/10/18 00:34:39;;;;;;;0.60;0.60;;;;;;;4.59;100.00;96502.56;29395;312;64009;-89
2023/10/18 00:35:18;;;;;;;0.60;0.60;;;;;;;4.61;100.00;96508.47;29395;224;64009;-90
2023/10/18 00:35:57;;;;;;;0.60;0.60;;;;;;;4.64;100.00;96499.91;29396;199;63009;-90
2023/10/18 00:36:30;;;;;;;0.60;0.60;;;;;;;4.65;100.00;96489.97;29396;221;63005;-89
2023/10/18 00:37:06;;;;;;;0.60;0.60;;;;;;;4.67;100.00;96504.75;29395;202;64013;-88
2023/10/18 00:37:41;;;;;;;0.60;0.60;;;;;;;4.67;100.00;96498.56;29396;287;63004;-89
2023/10/18 00:38:19;;;;;;;0.60;0.60;;;;;;;4.67;100.00;96494.00;29396;198;63009;-89
2023/10/18 00:38:53;;;;;;;0.60;0.60;;;;;;;4.66;100.00;96497.75;29396;234;63004;-88
2023/10/18 00:39:29;;;;;;;0.60;0.60;;;;;;;4.66;100.00;96500.44;29396;206;63009;-89
2023/10/18 00:40:09;;;;;;;0.60;0.60;;;;;;;4.66;100.00;96500.44;29395;250;64008;-87
2023/10/18 00:40:48;;;;;;;0.60;0.60;;;;;;;4.68;100.00;96494.81;29418;239;63009;-89
2023/10/18 00:41:22;;;;;;;0.60;0.60;;;;;;;4.68;100.00;96494.81;29396;213;63005;-90
2023/10/18 00:42:52;;;;;;;0.60;0.60;;;;;;;4.71;100.00;96489.72;29395;212;64009;-90
2023/10/18 00:43:26;;;;;;;0.60;0.60;;;;;;;4.70;100.00;96498.84;29396;232;63009;-89
2023/10/18 00:44:05;;;;;;;0.55;0.55;;;;;;;4.70;100.00;96489.97;29396;215;63005;-88
2023/10/18 00:44:37;;;;;;;0.55;0.55;;;;;;;4.70;100.00;96493.47;29396;215;63009;-89
2023/10/18 00:45:11;;;;;;;0.60;0.60;;;;;;;4.74;100.00;96493.75;29396;213;63004;-90
2023/10/18 00:45:47;;;;;;;0.60;0.60;;;;;;;4.76;100.00;96491.59;29396;196;63009;-88
2023/10/18 00:46:22;;;;;;;0.60;0.60;;;;;;;4.81;100.00;96493.50;29395;238;64009;-88
2023/10/18 00:46:56;;;;;;;0.60;0.60;;;;;;;4.81;100.00;96494.31;29396;202;63009;-89
2023/10/18 00:47:30;;;;;;;0.60;0.60;;;;;;;4.84;100.00;96492.97;29395;257;64008;-88
2023/10/18 00:48:06;;;;;;;0.50;0.50;;;;;;;4.85;100.00;96490.00;29396;220;63008;-88
2023/10/18 00:48:40;;;;;;;0.60;0.60;;;;;;;4.87;100.00;96487.03;29396;197;63005;-89
2023/10/18 00:49:14;;;;;;;0.55;0.55;;;;;;;4.88;100.00;96480.59;29396;209;63009;-90
2023/10/18 00:49:52;;;;;;;0.60;0.60;;;;;;;4.88;100.00;96478.72;29395;202;64009;-89
2023/10/18 00:50:31;;;;;;;0.60;0.60;;;;;;;4.90;100.00;96481.13;29396;229;63009;-90
2023/10/18 00:51:09;;;;;;;;;;;;;;;4.91;100.00;96480.06;29997;985;6000;-90
2023/10/18 00:51:46;;;;;;;0.60;0.60;;;;;;;4.91;100.00;96466.63;29400;209;63999;-90
2023/10/18 00:52:17;;;;;;;0.57;0.57;;;;;;;4.91;100.00;96482.75;29395;340;64013;-89
2023/10/18 00:52:50;;;;;;;0.60;0.60;;;;;;;4.91;100.00;96478.19;29396;205;63004;-90
2023/10/18 00:53:30;;;;;;;0.57;0.57;;;;;;;4.90;100.00;96475.75;29396;204;63009;-90
2023/10/18 00:54:11;;;;;;;0.50;0.50;;;;;;;4.90;100.00;96475.75;29396;199;63004;-90
2023/10/18 00:54:45;;;;;;;0.60;0.60;;;;;;;4.90;100.00;96475.75;29396;243;63009;-91
2023/10/18 00:55:19;;;;;;;0.57;0.57;;;;;;;4.90;100.00;96475.75;29396;261;63004;-89
2023/10/18 00:55:57;;;;;;;0.52;0.52;;;;;;;4.88;100.00;96470.66;29396;205;63009;-89
2023/10/18 00:56:30;;;;;;;0.60;0.60;;;;;;;4.87;100.00;96470.91;29396;227;63005;-88
2023/10/18 00:57:02;;;;;;;0.60;0.60;;;;;;;4.85;100.00;96468.50;29396;301;63009;-89
2023/10/18 00:57:37;;;;;;;0.50;0.50;;;;;;;4.84;100.00;96471.47;29395;272;64009;-90
2023/10/18 00:58:15;;;;;;;0.60;0.60;;;;;;;4.84;100.00;96476.84;29396;227;63009;-89
2023/10/18 00:58:48;;;;;;;0.60;0.60;;;;;;;4.82;100.00;96477.09;29396;209;63005;-89
2023/10/18 00:59:22;;;;;;;0.60;0.60;;;;;;;4.81;100.00;96474.69;29396;250;63009;-89
2023/10/18 00:59:56;;;;;;;0.85;0.85;;;;;;;4.78;100.00;96476.03;29396;241;63005;-91
2023/10/18 01:00:30;;;;;;;0.60;0.60;;;;;;;4.77;100.00;96476.28;29396;224;63009;-91
2023/10/18 01:01:10;;;;;;;0.50;0.50;;;;;;;4.75;100.00;96468.50;29396;252;63004;-89
2023/10/18 01:01:44;;;;;;;0.60;0.60;;;;;;;4.74;100.00;96466.88;29395;204;64013;-90
2023/10/18 01:02:27;;;;;;;0.60;0.60;;;;;;;4.72;100.00;96469.81;29396;208;63004;-89
2023/10/18 01:03:06;;;;;;;0.60;0.60;;;;;;;4.76;100.00;96474.66;29396;238;63008;-90
2023/10/18 01:03:45;;;;;;;0.60;0.60;;;;;;;4.76;100.00;96467.41;29396;218;63005;-88
2023/10/18 01:04:16;;;;;;;0.60;0.60;;;;;;;4.77;100.00;96466.34;29396;367;63009;-89
2023/10/18 01:04:52;;;;;;;0.60;0.60;;;;;;;4.77;100.00;96460.16;29396;225;63011;-89
2023/10/18 01:05:28;;;;;;;0.60;0.60;;;;;;;4.79;100.00;96466.09;29397;218;63009;-88
2023/10/18 01:06:08;;;;;;;0.60;0.60;;;;;;;4.78;100.00;96464.47;29397;216;63005;-87
2023/10/18 01:06:50;;;;;;;0.60;0.60;;;;;;;4.77;100.00;96460.16;29397;208;63009;-90
2023/10/18 01:07:23;;;;;;;0.60;0.60;;;;;;;4.76;100.00;96464.72;29396;209;64009;-89
2023/10/18 01:08:06;;;;;;;0.60;0.60;;;;;;;4.74;100.00;96456.13;29396;223;64013;-90
2023/10/18 01:08:44;;;;;;;0.60;0.60;;;;;;;4.72;100.00;96467.13;29397;228;63004;-88
2023/10/18 01:09:20;;;;;;;0.60;0.60;;;;;;;4.71;100.00;96462.03;29397;228;63026;-89
2023/10/18 01:09:53;;;;;;;0.50;0.50;;;;;;;4.70;100.00;96466.59;29397;202;63004;-89
2023/10/18 01:10:30;;;;;;;0.60;0.60;;;;;;;4.68;100.00;96467.94;29397;211;63008;-88
2023/10/18 01:11:10;;;;;;;0.60;0.60;;;;;;;4.65;100.00;96457.72;29397;236;63005;-89
2023/10/18 01:11:46;;;;;;;0.60;0.60;;;;;;;4.63;100.00;96466.03;29419;212;63009;-89
2023/10/18 01:12:23;;;;;;;0.60;0.60;;;;;;;4.61;100.00;96462.81;29397;229;63005;-90
2023/10/18 01:12:58;;;;;;;0.60;0.60;;;;;;;4.60;100.00;96461.19;29396;235;64013;-89
2023/10/18 01:13:40;;;;;;;0.60;0.60;;;;;;;4.57;100.00;96461.72;29396;342;64009;-89
2023/10/18 01:14:21;;;;;;;0.50;0.50;;;;;;;4.54;100.00;96456.87;29397;230;63009;-89
2023/10/18 01:14:53;;;;;;;0.60;0.60;;;;;;;4.50;100.00;96455.81;29397;222;63005;-88
2023/10/18 01:15:27;;;;;;;0.50;0.50;;;;;;;4.52;100.00;96450.94;29397;199;63009;-89
2023/10/18 01:16:06;;;;;;;0.60;0.60;;;;;;;4.54;100.00;96446.12;29397;228;63004;-89
2023/10/18 01:16:40;;;;;;;0.60;0.60;;;;;;;4.55;100.00;96447.72;29396;218;64013;-91
2023/10/18 01:17:15;;;;;;;0.60;0.60;;;;;;;4.55;100.00;96442.37;29397;207;63016;-88
2023/10/18 01:17:49;;;;;;;0.60;0.60;;;;;;;4.58;100.00;96446.41;29397;219;63008;-90
2023/10/18 01:18:25;;;;;;;0.60;0.60;;;;;;;4.60;100.00;96445.06;29397;217;63004;-90
2023/10/18 01:18:56;;;;;;;0.60;0.60;;;;;;;4.61;100.00;96446.69;29396;223;63009;-90
2023/10/18 01:19:27;;;;;;;0.50;0.50;;;;;;;4.62;100.00;96439.44;29396;266;63005;-90
2023/10/18 01:20:56;;;;;;;0.60;0.60;;;;;;;4.63;100.00;96441.84;29396;245;63005;-89
2023/10/18 01:21:32;;;;;;;0.60;0.60;;;;;;;4.59;100.00;96438.06;29396;216;63009;-91
2023/10/18 01:22:06;;;;;;;0.60;0.60;;;;;;;4.61;100.00;96441.31;29395;343;64009;-92
2023/10/18 01:22:41;;;;;;;0.60;0.60;;;;;;;4.63;100.00;96441.84;29396;215;63009;-90
2023/10/18 01:23:14;;;;;;;0.60;0.60;;;;;;;4.65;100.00;96438.91;29396;339;63004;-89
2023/10/18 01:23:55;;;;;;;0.60;0.60;;;;;;;4.65;100.00;96439.69;29396;204;63009;-89
2023/10/18 01:24:38;;;;;;;0.60;0.60;;;;;;;4.65;100.00;96439.69;29396;204;63004;-90
2023/10/18 01:25:13;;;;;;;0.50;0.50;;;;;;;4.65;100.00;96437.03;29396;212;63008;-89
2023/10/18 01:25:49;;;;;;;0.60;0.60;;;;;;;4.63;100.00;96439.16;29396;247;63004;-89
2023/10/18 01:26:30;;;;;;;0.50;0.50;;;;;;;4.62;100.00;96437.53;29396;215;63009;-88
2023/10/18 01:27:04;;;;;;;0.60;0.60;;;;;;;4.62;100.00;96442.91;29396;207;63005;-89
2023/10/18 01:27:36;;;;;;;0.60;0.60;;;;;;;4.63;100.00;96441.84;29395;220;64014;-90
2023/10/18 01:28:07;;;;;;;0.60;0.60;;;;;;;4.63;100.00;96439.16;29396;250;63005;-89
2023/10/18 01:28:42;;;;;;;0.50;0.50;;;;;;;4.64;100.00;96437.28;29396;203;63009;-90
2023/10/18 01:29:16;;;;;;;0.50;0.50;;;;;;;4.65;100.00;96441.59;29396;225;63005;-90
2023/10/18 01:29:47;;;;;;;0.57;0.57;;;;;;;4.67;100.00;96440.25;29396;218;63009;-89
2023/10/18 01:30:19;;;;;;;0.60;0.60;;;;;;;4.68;100.00;96438.38;29395;345;64009;-89
2023/10/18 01:30:52;;;;;;;0.60;0.60;;;;;;;4.68;100.00;96433.81;29396;212;63009;-89
2023/10/18 01:31:26;;;;;;;0.60;0.60;;;;;;;4.69;100.00;96431.91;29396;235;63004;-89
2023/10/18 01:31:59;;;;;;;0.60;0.60;;;;;;;4.68;100.00;96428.44;29395;227;64013;-88
2023/10/18 01:32:31;;;;;;;0.50;0.50;;;;;;;4.70;100.00;96426.28;29396;211;63004;-89
2023/10/18 01:33:10;;;;;;;0.60;0.60;;;;;;;4.70;100.00;96426.28;29396;215;63008;-90
2023/10/18 01:33:48;;;;;;;0.52;0.52;;;;;;;4.72;100.00;96429.50;29418;254;63005;-89
2023/10/18 01:34:23;;;;;;;0.60;0.60;;;;;;;4.74;100.00;96429.25;29396;263;63009;-89
2023/10/18 01:34:57;;;;;;;0.60;0.60;;;;;;;4.74;100.00;96420.38;29396;227;63005;-90
2023/10/18 01:35:28;;;;;;;0.60;0.60;;;;;;;4.76;100.00;96428.97;29396;236;63016;-91
2023/10/18 01:36:11;;;;;;;0.50;0.50;;;;;;;4.77;100.00;96433.28;29396;211;63005;-90
2023/10/18 01:36:46;;;;;;;0.60;0.60;;;;;;;4.76;100.00;96431.66;29396;292;63009;-88
2023/10/18 01:37:20;;;;;;;0.60;0.60;;;;;;;4.75;100.00;96430.06;29395;209;64009;-88
2023/10/18 01:37:57;;;;;;;0.60;0.60;;;;;;;4.74;100.00;96433.81;29396;213;63009;-90
2023/10/18 01:38:30;;;;;;;0.50;0.50;;;;;;;4.73;100.00;96430.31;29396;220;63004;-89
2023/10/18 01:39:21;;;;;;;0.50;0.50;;;;;;;4.71;100.00;96427.91;29396;237;63009;-91
2023/10/18 01:39:54;;;;;;;0.50;0.50;;;;;;;4.72;100.00;96423.31;29440;211;63004;-90
2023/10/18 01:41:16;;;;;;;0.57;0.57;;;;;;;4.70;100.00;96428.97;29396;196;63005;-89
2023/10/18 01:41:55;;;;;;;0.50;0.50;;;;;;;4.70;100.00;96418.22;29396;254;63016;-90
2023/10/18 01:42:36;;;;;;;0.60;0.60;;;;;;;4.72;100.00;96426.81;29395;215;64009;-89
2023/10/18 01:43:11;;;;;;;0.50;0.50;;;;;;;4.71;100.00;96419.84;29395;203;64013;-90
2023/10/18 01:43:47;;;;;;;0.60;0.60;;;;;;;4.74;100.00;96417.69;29396;207;63005;-89
2023/10/18 01:44:30;;;;;;;0.60;0.60;;;;;;;4.74;100.00;96421.19;29396;271;63009;-89
2023/10/18 01:45:07;;;;;;;0.60;0.60;;;;;;;4.76;100.00;96413.66;29396;212;63004;-90
2023/10/18 01:45:39;;;;;;;0.60;0.60;;;;;;;4.77;100.00;96419.84;29396;202;63009;-89
2023/10/18 01:46:13;;;;;;;0.52;0.52;;;;;;;4.79;100.00;96417.69;29396;267;63004;-88
2023/10/18 01:46:46;;;;;;;0.60;0.60;;;;;;;4.80;100.00;96417.44;29396;368;63009;-89
2023/10/18 01:47:20;;;;;;;0.60;0.60;;;;;;;4.80;100.00;96420.13;29396;206;63004;-88
2023/10/18 01:47:57;;;;;;;0.60;0.60;;;;;;;4.81;100.00;96415.56;29395;245;64006;-89
2023/10/18 01:48:30;;;;;;;0.60;0.60;;;;;;;4.80;100.00;96416.63;29397;211;63005;-89
2023/10/18 01:49:06;;;;;;;0.50;0.50;;;;;;;4.80;100.00;96411.25;29396;222;63009;-90
2023/10/18 01:49:44;;;;;;;0.52;0.52;;;;;;;4.78;100.00;96416.09;29396;215;63005;-89
2023/10/18 01:50:21;;;;;;;0.60;0.60;;;;;;;4.74;100.00;96420.38;29396;240;63025;-91
2023/10/18 01:50:54;;;;;;;0.60;0.60;;;;;;;4.71;100.00;96417.16;29396;305;63005;-89
2023/10/18 01:51:29;;;;;;;0.60;0.60;;;;;;;4.70;100.00;96422.78;29396;204;63009;-89
2023/10/18 01:52:04;;;;;;;0.50;0.50;;;;;;;4.69;100.00;96416.59;29396;261;63004;-88
2023/10/18 01:52:37;;;;;;;0.60;0.60;;;;;;;4.67;100.00;96416.06;29396;202;63009;-88
2023/10/18 01:53:16;;;;;;;0.60;0.60;;;;;;;4.67;100.00;96413.38;29395;269;64009;-89
2023/10/18 01:53:50;;;;;;;0.60;0.60;;;;;;;4.68;100.00;96417.69;29395;235;64013;-89
2023/10/18 01:54:25;;;;;;;0.60;0.60;;;;;;;4.70;100.00;96417.41;29396;258;63004;-88
2023/10/18 01:54:57;;;;;;;43.05;40.33;;;;;;;4.70;100.00;96412.84;29386;295;65008;-87
2023/10/18 01:55:28;;;;;;;1.52;1.52;;;;;;;4.70;100.00;96417.41;29396;223;63005;-89
2023/10/18 01:56:01;;;;;;;0.60;0.60;;;;;;;4.69;100.00;96411.22;29396;293;63009;-89
2023/10/18 01:56:34;;;;;;;0.60;0.60;;;;;;;4.70;100.00;96412.84;29396;299;63005;-89
2023/10/18 01:57:12;;;;;;;0.60;0.60;;;;;;;4.70;100.00;96407.47;29396;216;63009;-88
2023/10/18 01:57:45;;;;;;;0.50;0.50;;;;;;;4.72;100.00;96410.69;29396;230;63005;-89
2023/10/18 01:58:24;;;;;;;0.60;0.60;;;;;;;4.76;100.00;96410.16;29396;260;63009;-89
2023/10/18 01:58:57;;;;;;;0.60;0.60;;;;;;;4.76;100.00;96408.28;29395;204;64009;-89
2023/10/18 01:59:28;;;;;;;0.60;0.60;;;;;;;4.76;100.00;96410.16;29396;208;63009;-88
2023/10/18 02:00:03;;;;;;;0.60;0.60;;;;;;;4.75;100.00;96408.56;29396;231;63017;-89
2023/10/18 02:00:37;;;;;;;0.60;0.60;;;;;;;4.75;100.00;96411.25;29395;209;64013;-89
2023/10/18 02:01:16;;;;;;;0.60;0.60;;;;;;;4.74;100.00;96406.94;29396;218;63004;-89
2023/10/18 02:02:54;;;;;;;0.60;0.60;;;;;;;4.72;100.00;96404.50;88180;210;64004;-88
2023/10/18 02:03:29;;;;;;;0.60;0.60;;;;;;;4.74;100.00;96401.56;29394;224;64009;-88
2023/10/18 02:04:03;;;;;;;0.60;0.60;;;;;;;4.76;100.00;96399.41;29395;213;63005;-88
2023/10/18 02:04:37;;;;;;;0.60;0.60;;;;;;;4.78;100.00;96405.34;29395;237;63009;-89
2023/10/18 02:05:15;;;;;;;0.50;0.50;;;;;;;4.76;100.00;96404.78;29395;219;63005;-88
2023/10/18 02:05:50;;;;;;;0.55;0.55;;;;;;;4.76;100.00;96400.22;29394;307;64013;-88
2023/10/18 02:06:21;;;;;;;0.60;0.60;;;;;;;4.77;100.00;96403.72;29395;295;63015;-89
2023/10/18 02:06:57;;;;;;;0.50;0.50;;;;;;;4.76;100.00;96394.84;29395;220;63009;-89
2023/10/18 02:07:30;;;;;;;0.60;0.60;;;;;;;4.76;100.00;96399.41;29395;217;63004;-88
2023/10/18 02:08:06;;;;;;;0.60;0.60;;;;;;;4.75;100.00;96400.50;29395;259;63009;-90
2023/10/18 02:08:37;;;;;;;0.60;0.60;;;;;;;4.73;100.00;96395.37;29395;204;63004;-88
2023/10/18 02:09:10;;;;;;;0.57;0.57;;;;;;;4.70;100.00;96407.47;29395;247;63008;-89
2023/10/18 02:09:48;;;;;;;0.55;0.55;;;;;;;4.69;100.00;96397.78;29395;220;63004;-89
2023/10/18 02:10:23;;;;;;;0.60;0.60;;;;;;;4.68;100.00;96404.25;29395;212;63009;-89
2023/10/18 02:10:56;;;;;;;0.60;0.60;;;;;;;4.67;100.00;96399.94;29394;216;64009;-89
2023/10/18 02:11:36;;;;;;;0.60;0.60;;;;;;;4.66;100.00;96402.87;29395;270;63009;-88
2023/10/18 02:12:10;;;;;;;0.60;0.60;;;;;;;4.65;100.00;96402.09;29395;208;63008;-89
2023/10/18 02:12:42;;;;;;;0.60;0.60;;;;;;;4.65;100.00;96394.03;29395;256;63009;-90
2023/10/18 02:13:13;;;;;;;0.60;0.60;;;;;;;4.57;100.00;96391.03;29395;212;63005;-90
2023/10/18 02:13:46;;;;;;;0.50;0.50;;;;;;;4.65;100.00;96401.28;29395;236;63009;-89
2023/10/18 02:14:18;;;;;;;0.50;0.50;;;;;;;4.65;100.00;96394.03;29395;202;63004;-91
2023/10/18 02:14:51;;;;;;;0.60;0.60;;;;;;;4.66;100.00;96398.31;29395;221;63023;-89
2023/10/18 02:15:24;;;;;;;0.50;0.50;;;;;;;4.67;100.00;96399.12;29395;214;63000;-90
2023/10/18 02:15:57;;;;;;;0.50;0.50;;;;;;;4.67;100.00;96397.25;29394;258;64013;-90
2023/10/18 02:16:33;;;;;;;0.60;0.60;;;;;;;4.69;100.00;96403.16;29395;263;63004;-90
2023/10/18 02:17:07;;;;;;;0.60;0.60;;;;;;;4.69;100.00;96402.34;29395;221;63008;-90
2023/10/18 02:17:40;;;;;;;0.50;0.50;;;;;;;4.66;100.00;96395.63;29395;220;63005;-89
2023/10/18 02:18:13;;;;;;;0.50;0.50;;;;;;;4.67;100.00;96399.94;29395;202;63009;-90
2023/10/18 02:18:49;;;;;;;0.60;0.60;;;;;;;4.67;100.00;96397.25;29395;261;63005;-89
2023/10/18 02:19:22;;;;;;;0.60;0.60;;;;;;;4.67;100.00;96402.63;29395;223;63009;-90
2023/10/18 02:19:59;;;;;;;0.60;0.60;;;;;;;4.67;100.00;96402.63;29395;234;63005;-90
2023/10/18 02:20:35;;;;;;;0.60;0.60;;;;;;;4.66;100.00;96394.81;29395;248;63009;-89
2023/10/18 02:21:10;;;;;;;0.60;0.60;;;;;;;4.66;100.00;96405.56;29394;226;64009;-89
2023/10/18 02:21:41;;;;;;;0.50;0.50;;;;;;;4.65;100.00;96399.41;29395;207;63009;-90
2023/10/18 02:22:16;;;;;;;0.52;0.52;;;;;;;4.66;100.00;96400.19;29395;202;63004;-88
2023/10/18 02:22:48;;;;;;;0.60;0.60;;;;;;;4.64;100.00;96408.53;29395;239;63009;-89
2023/10/18 02:23:22;;;;;;;0.60;0.60;;;;;;;4.64;100.00;96405.03;29394;250;64008;-89
2023/10/18 02:23:55;;;;;;;0.50;0.50;;;;;;;4.63;100.00;96400.72;29395;219;63008;-91
2023/10/18 02:24:29;;;;;;;0.50;0.50;;;;;;;4.61;100.00;96400.19;29395;205;63004;-90
2023/10/18 02:25:02;;;;;;;0.60;0.60;;;;;;;4.60;100.00;96404.75;29395;226;63009;-90
2023/10/18 02:25:45;;;;;;;0.60;0.60;;;;;;;4.61;100.00;96397.50;29395;203;63005;-90
2023/10/18 02:26:44;;;;;;;0.50;0.50;;;;;;;4.60;100.00;96407.44;29394;224;64013;-90
2023/10/18 02:27:19;;;;;;;0.60;0.60;;;;;;;4.59;100.00;96399.66;29394;228;64005;-89
2023/10/18 02:27:51;;;;;;;0.60;0.60;;;;;;;4.60;100.00;96402.06;29395;245;63009;-88
2023/10/18 02:28:27;;;;;;;0.60;0.60;;;;;;;4.61;100.00;96406.38;29395;286;63004;-90
2023/10/18 02:29:11;;;;;;;0.52;0.52;;;;;;;4.64;100.00;96403.16;29395;232;63009;-90
2023/10/18 02:29:47;;;;;;;0.60;0.60;;;;;;;4.65;100.00;96394.03;29395;239;63004;-89
2023/10/18 02:30:19;;;;;;;0.50;0.50;;;;;;;4.65;100.00;96399.41;29395;212;63009;-89
2023/10/18 02:31:07;;;;;;;0.60;0.60;;;;;;;4.66;100.00;96401.00;29395;202;63004;-89
2023/10/18 02:31:42;;;;;;;0.60;0.60;;;;;;;4.68;100.00;96408.81;29394;216;64014;-90
2023/10/18 02:32:39;;;;;;;0.50;0.50;;;;;;;4.69;100.00;96405.84;29395;264;63005;-90
2023/10/18 02:33:12;;;;;;;0.60;0.60;;;;;;;4.70;100.00;96399.41;29395;206;63009;-87
2023/10/18 02:33:43;;;;;;;0.60;0.60;;;;;;;4.69;100.00;96400.47;29394;276;64009;-87
2023/10/18 02:34:14;;;;;;;0.60;0.60;;;;;;;4.70;100.00;96394.03;29395;239;63009;-89
2023/10/18 02:34:46;;;;;;;0.57;0.57;;;;;;;4.71;100.00;96395.66;29395;204;63018;-89
2023/10/18 02:35:20;;;;;;;0.60;0.60;;;;;;;4.74;100.00;96396.19;29395;223;63013;-89
2023/10/18 02:35:57;;;;;;;0.60;0.60;;;;;;;4.75;100.00;96400.50;29395;306;63004;-89
2023/10/18 02:36:33;;;;;;;0.60;0.60;;;;;;;4.76;100.00;96391.34;29395;212;63009;-89
2023/10/18 02:37:07;;;;;;;0.50;0.50;;;;;;;4.77;100.00;96392.97;29395;208;63004;-88
2023/10/18 02:37:41;;;;;;;0.60;0.60;;;;;;;4.79;100.00;96398.88;29394;216;64013;-88
2023/10/18 02:38:13;;;;;;;0.60;0.60;;;;;;;4.79;100.00;96396.19;29395;218;63004;-88
2023/10/18 02:38:49;;;;;;;0.50;0.50;;;;;;;4.79;100.00;96390.81;29395;223;63008;-89
2023/10/18 02:39:23;;;;;;;0.60;0.60;;;;;;;4.77;100.00;96395.66;29395;280;63005;-90
2023/10/18 02:40:07;;;;;;;0.60;0.60;;;;;;;4.76;100.00;96391.34;29395;229;63009;-90
2023/10/18 02:40:40;;;;;;;0.50;0.50;;;;;;;4.75;100.00;96384.38;29395;279;63005;-89
2023/10/18 02:41:31;;;;;;;0.52;0.52;;;;;;;4.75;100.00;96390.53;29394;230;64013;-89
2023/10/18 02:42:05;;;;;;;0.60;0.60;;;;;;;4.74;100.00;96380.87;29416;218;64009;-90
2023/10/18 02:42:39;;;;;;;0.50;0.50;;;;;;;4.75;100.00;96392.44;29395;263;63009;-89
2023/10/18 02:43:14;;;;;;;0.60;0.60;;;;;;;4.75;100.00;96390.53;29395;310;63005;-88
2023/10/18 02:43:51;;;;;;;0.50;0.50;;;;;;;4.77;100.00;96387.59;29395;247;63009;-87
2023/10/18 02:44:29;;;;;;;0.60;0.60;;;;;;;4.75;100.00;96395.13;29395;199;63004;-88
2023/10/18 02:45:17;;;;;;;0.60;0.60;;;;;;;4.72;100.00;96383.81;29395;202;63009;-89
2023/10/18 02:45:53;;;;;;;0.60;0.60;;;;;;;4.71;100.00;96386.78;29394;203;64009;-89
2023/10/18 02:46:27;;;;;;;0.50;0.50;;;;;;;4.70;100.00;96388.66;29394;210;64013;-89
2023/10/18 02:47:16;;;;;;;0.60;0.60;;;;;;;4.72;100.00;96385.69;29395;233;63005;-88
2023/10/18 02:47:51;;;;;;;0.55;0.55;;;;;;;4.71;100.00;96387.59;29394;402;64014;-89
2023/10/18 02:48:25;;;;;;;0.60;0.60;;;;;;;4.71;100.00;96382.22;29395;237;63005;-87
2023/10/18 02:49:00;;;;;;;0.60;0.60;;;;;;;4.72;100.00;96378.44;29395;218;63009;-86
2023/10/18 02:49:34;;;;;;;0.60;0.60;;;;;;;4.70;100.00;96371.72;29395;284;63005;-87
2023/10/18 02:50:14;;;;;;;0.60;0.60;;;;;;;4.69;100.00;96375.50;29395;215;63009;-90
2023/10/18 02:50:46;;;;;;;0.50;0.50;;;;;;;4.68;100.00;96376.56;29394;208;64009;-88
2023/10/18 02:51:24;;;;;;;0.50;0.50;;;;;;;4.68;100.00;96369.31;29395;207;63009;-90
2023/10/18 02:51:57;;;;;;;0.60;0.60;;;;;;;4.67;100.00;96381.13;29417;232;63004;-89
2023/10/18 02:52:30;;;;;;;0.60;0.60;;;;;;;4.66;100.00;96373.34;29395;269;63009;-90
2023/10/18 02:53:06;;;;;;;0.60;0.60;;;;;;;4.63;100.00;96380.03;29395;223;63004;-88